Time;durP1;ratioP1;P1;durP2;ratioP2;P2;SDS_P1;SDS_P2;PMS_P1;PMS_P2;Temp;Humidity;BMP_temperature;BMP_pressure;BME280_temperature;BME280_humidity;BME280_pressure;Samples;Min_cycle;Max_cycle;Signal;HPM_P1;HPM_P2
2022/01/18 00:01:50;;;;;;;8.05;1.98;;;;;;;;;;6214690;22;100113;-74
2022/01/18 00:04:17;;;;;;;9.32;1.92;;;;;;;;;;6214619;22;101022;-75
2022/01/18 00:06:48;;;;;;;11.50;2.00;;;;;;;;;;6215241;22;99815;-75
2022/01/18 00:09:15;;;;;;;6.55;1.67;;;;;;;;;;6214061;22;99961;-75
2022/01/18 00:11:47;;;;;;;5.38;1.48;;;;;;;;;;6214337;22;101249;-75
2022/01/18 00:14:27;;;;;;;9.57;2.00;;;;;;;;;;6212979;22;100580;-75
2022/01/18 00:17:40;;;;;;;10.45;1.70;;;;;;;;;;6213712;22;99829;-75
2022/01/18 00:19:57;;;;;;;12.50;2.00;;;;;;;;;;6212095;22;100204;-76
2022/01/18 00:22:25;;;;;;;4.78;1.70;;;;;;;;;;6212710;22;100365;-76
2022/01/18 00:24:53;;;;;;;7.88;1.80;;;;;;;;;;6188243;22;100406;-76
2022/01/18 00:27:25;;;;;;;6.43;1.98;;;;;;;;;;6215219;22;99750;-76
2022/01/18 00:30:06;;;;;;;6.18;1.85;;;;;;;;;;6188636;22;99983;-75
2022/01/18 00:35:00;;;;;;;5.30;1.50;;;;;;;;;;6214587;22;100451;-75
2022/01/18 00:37:36;;;;;;;8.25;1.88;;;;;;;;;;6238541;22;99960;-75
2022/01/18 00:40:04;;;;;;;7.38;2.00;;;;;;;;;;6213737;22;99978;-76
2022/01/18 00:42:30;;;;;;;6.25;1.85;;;;;;;;;;6214466;22;100118;-75
2022/01/18 00:44:57;;;;;;;11.10;2.90;;;;;;;;;;6213065;22;101558;-75
2022/01/18 00:47:24;;;;;;;5.20;1.67;;;;;;;;;;6187565;22;99895;-75
2022/01/18 00:49:59;;;;;;;7.90;2.00;;;;;;;;;;6215360;22;99765;-75
2022/01/18 00:52:27;;;;;;;7.55;1.70;;;;;;;;;;6236942;22;100272;-76
2022/01/18 00:54:54;;;;;;;8.98;1.98;;;;;;;;;;6238421;22;100658;-75
2022/01/18 00:57:21;;;;;;;7.18;1.65;;;;;;;;;;6213250;22;100424;-76
2022/01/18 00:59:48;;;;;;;4.78;1.38;;;;;;;;;;6213465;22;99815;-75
2022/01/18 01:02:16;;;;;;;8.55;2.13;;;;;;;;;;6214389;22;100117;-75
2022/01/18 01:04:47;;;;;;;10.48;1.85;;;;;;;;;;6212982;22;100669;-75
2022/01/18 01:07:18;;;;;;;10.30;1.63;;;;;;;;;;6214932;22;99729;-76
2022/01/18 01:09:45;;;;;;;5.57;1.73;;;;;;;;;;6213696;22;99994;-76
2022/01/18 01:12:13;;;;;;;6.20;1.55;;;;;;;;;;6212585;22;100126;-75
2022/01/18 01:14:41;;;;;;;10.00;2.03;;;;;;;;;;6238046;22;100586;-74
2022/01/18 01:17:39;;;;;;;11.15;2.08;;;;;;;;;;6213679;22;100052;-73
2022/01/18 01:36:33;;;;;;;8.27;1.77;;;;;;;;;;6213197;22;100531;-74
2022/01/18 01:46:42;;;;;;;6.03;1.55;;;;;;;;;;6238304;22;100607;-74
2022/01/18 01:49:13;;;;;;;7.45;2.00;;;;;;;;;;6213521;22;100030;-75
2022/01/18 01:51:41;;;;;;;9.65;1.60;;;;;;;;;;6213688;22;99883;-75
2022/01/18 01:54:09;;;;;;;8.68;2.05;;;;;;;;;;6214351;22;100152;-74
2022/01/18 01:56:36;;;;;;;4.55;1.42;;;;;;;;;;6187695;22;100545;-74
2022/01/18 01:59:03;;;;;;;6.32;1.80;;;;;;;;;;6187906;22;100083;-75
2022/01/18 02:01:44;;;;;;;8.32;1.75;;;;;;;;;;6215049;22;100787;-76
2022/01/18 02:04:11;;;;;;;5.10;1.40;;;;;;;;;;6211565;22;100485;-74
2022/01/18 02:06:38;;;;;;;7.00;1.80;;;;;;;;;;6238089;22;100537;-75
2022/01/18 02:09:06;;;;;;;7.72;1.52;;;;;;;;;;6213425;22;99744;-74
2022/01/18 02:11:33;;;;;;;10.55;2.13;;;;;;;;;;6214602;22;100631;-74
2022/01/18 02:14:00;;;;;;;9.68;1.77;;;;;;;;;;6238187;22;100179;-74
2022/01/18 02:22:03;;;;;;;8.35;1.65;;;;;;;;;;6235112;22;100050;-75
2022/01/18 02:24:30;;;;;;;7.88;1.67;;;;;;;;;;6212626;22;100690;-75
2022/01/18 02:26:57;;;;;;;8.80;2.05;;;;;;;;;;6187052;22;100639;-75
2022/01/18 02:29:24;;;;;;;10.20;1.98;;;;;;;;;;6238139;22;99841;-75
2022/01/18 02:31:51;;;;;;;6.90;2.00;;;;;;;;;;6212970;22;99956;-75
2022/01/18 02:34:19;;;;;;;5.88;1.65;;;;;;;;;;6211889;22;100034;-75
2022/01/18 02:36:46;;;;;;;11.30;1.88;;;;;;;;;;6237580;22;100686;-75
2022/01/18 02:39:13;;;;;;;5.72;1.45;;;;;;;;;;6186898;22;100060;-74
2022/01/18 02:41:40;;;;;;;9.18;1.67;;;;;;;;;;6187151;22;99946;-74
2022/01/18 02:44:12;;;;;;;12.82;2.00;;;;;;;;;;6211740;22;100678;-74
2022/01/18 02:46:39;;;;;;;8.82;1.80;;;;;;;;;;6213923;22;100621;-74
2022/01/18 02:49:06;;;;;;;9.15;1.70;;;;;;;;;;6213962;22;99873;-74
2022/01/18 02:51:34;;;;;;;12.65;1.80;;;;;;;;;;6214225;22;99885;-74
2022/01/18 02:54:04;;;;;;;4.97;1.80;;;;;;;;;;6187890;22;100446;-75
2022/01/18 02:56:44;;;;;;;7.57;1.92;;;;;;;;;;6213371;22;100484;-75
2022/01/18 02:59:20;;;;;;;8.63;1.67;;;;;;;;;;6215253;22;100042;-75
2022/01/18 03:04:43;;;;;;;8.05;1.70;;;;;;;;;;6213126;22;100066;-75
2022/01/18 03:07:10;;;;;;;6.75;1.98;;;;;;;;;;6212799;22;100567;-75
2022/01/18 03:09:37;;;;;;;6.60;1.25;;;;;;;;;;6188497;22;99852;-75
2022/01/18 03:12:04;;;;;;;6.90;1.58;;;;;;;;;;6239049;22;100827;-75
2022/01/18 03:14:31;;;;;;;4.32;1.30;;;;;;;;;;6212715;22;100263;-75
2022/01/18 03:16:58;;;;;;;7.25;1.50;;;;;;;;;;6213237;22;100512;-75
2022/01/18 03:19:25;;;;;;;10.90;1.80;;;;;;;;;;6213667;22;99898;-75
2022/01/18 03:21:55;;;;;;;8.05;1.50;;;;;;;;;;6214049;22;99928;-75
2022/01/18 03:29:55;;;;;;;8.32;1.40;;;;;;;;;;6121347;23;100051;-75
2022/01/18 03:32:22;;;;;;;4.57;1.00;;;;;;;;;;6196255;22;100030;-74
2022/01/18 03:34:49;;;;;;;7.03;1.42;;;;;;;;;;6214374;22;100179;-74
2022/01/18 03:37:15;;;;;;;6.50;1.55;;;;;;;;;;6239114;22;100830;-75
2022/01/18 03:39:42;;;;;;;7.10;1.73;;;;;;;;;;6239076;22;99916;-75
2022/01/18 03:42:34;;;;;;;7.82;1.35;;;;;;;;;;6213589;22;99862;-75
2022/01/18 03:44:57;;;;;;;3.55;1.20;;;;;;;;;;6234189;22;100306;-74
2022/01/18 03:47:24;;;;;;;15.43;1.83;;;;;;;;;;6213080;22;100487;-74
2022/01/18 03:49:51;;;;;;;4.78;1.40;;;;;;;;;;6213579;22;99981;-75
2022/01/18 03:52:18;;;;;;;5.38;1.45;;;;;;;;;;6215273;22;99927;-75
2022/01/18 03:54:47;;;;;;;11.52;2.20;;;;;;;;;;6214098;22;100259;-74
2022/01/18 03:57:14;;;;;;;4.93;1.35;;;;;;;;;;6213035;22;100703;-75
2022/01/18 03:59:41;;;;;;;7.38;1.35;;;;;;;;;;6239320;22;99989;-75
2022/01/18 04:02:08;;;;;;;6.57;1.65;;;;;;;;;;6214927;22;99935;-75
2022/01/18 04:04:35;;;;;;;7.07;1.45;;;;;;;;;;6213005;22;100598;-75
2022/01/18 04:07:03;;;;;;;5.93;1.13;;;;;;;;;;6212788;22;100475;-75
2022/01/18 04:09:30;;;;;;;6.47;1.63;;;;;;;;;;6213812;22;100086;-75
2022/01/18 04:11:59;;;;;;;6.10;1.50;;;;;;;;;;6215131;22;99979;-75
2022/01/18 04:14:25;;;;;;;5.05;1.10;;;;;;;;;;6212658;22;100655;-75
2022/01/18 04:28:26;;;;;;;11.77;1.40;;;;;;;;;;6165859;22;103197;-75
2022/01/18 04:30:58;;;;;;;9.52;1.33;;;;;;;;;;6192395;22;100004;-75
2022/01/18 04:33:24;;;;;;;6.57;1.42;;;;;;;;;;6215097;22;99868;-75
2022/01/18 04:35:51;;;;;;;7.22;1.60;;;;;;;;;;6238335;22;100025;-75
2022/01/18 04:38:18;;;;;;;6.25;1.40;;;;;;;;;;6214498;22;100467;-75
2022/01/18 04:40:47;;;;;;;9.38;1.45;;;;;;;;;;6213444;22;99895;-75
2022/01/18 04:51:00;;;;;;;6.20;1.50;;;;;;;;;;6213537;22;100009;-75
2022/01/18 04:53:31;;;;;;;11.10;1.58;;;;;;;;;;6214915;22;99908;-76
2022/01/18 04:56:01;;;;;;;4.68;1.30;;;;;;;;;;6214384;22;100194;-76
2022/01/18 04:58:28;;;;;;;6.75;1.27;;;;;;;;;;6212832;22;100602;-76
2022/01/18 05:00:55;;;;;;;9.90;1.65;;;;;;;;;;6214731;22;99778;-76
2022/01/18 05:03:22;;;;;;;5.93;1.83;;;;;;;;;;6213703;22;99793;-76
2022/01/18 05:05:52;;;;;;;8.93;1.35;;;;;;;;;;6212751;22;100758;-76
2022/01/18 05:08:19;;;;;;;6.05;1.25;;;;;;;;;;6237680;22;100461;-76
2022/01/18 05:10:52;;;;;;;4.78;1.20;;;;;;;;;;6214439;22;100796;-76
2022/01/18 05:13:40;;;;;;;7.57;1.40;;;;;;;;;;6213110;22;100014;-75
2022/01/18 05:21:22;;;;;;;3.72;1.33;;;;;;;;;;6187578;22;100152;-75
2022/01/18 05:23:49;;;;;;;9.82;1.70;;;;;;;;;;6214819;22;99872;-76
2022/01/18 05:26:16;;;;;;;7.38;1.77;;;;;;;;;;6212189;22;100698;-74
2022/01/18 05:28:43;;;;;;;6.03;1.10;;;;;;;;;;6214112;22;100570;-74
2022/01/18 05:31:13;;;;;;;4.38;1.30;;;;;;;;;;6214567;22;99923;-75
2022/01/18 05:33:42;;;;;;;8.32;2.85;;;;;;;;;;6213162;22;99865;-75
2022/01/18 05:36:09;;;;;;;5.43;1.38;;;;;;;;;;6212300;22;100614;-75
2022/01/18 05:38:37;;;;;;;7.72;2.13;;;;;;;;;;6211734;22;100808;-75
2022/01/18 05:41:04;;;;;;;5.70;1.50;;;;;;;;;;6187500;22;99996;-75
2022/01/18 05:43:31;;;;;;;8.95;1.70;;;;;;;;;;6214811;22;99719;-75
2022/01/18 05:45:58;;;;;;;9.30;2.15;;;;;;;;;;6236822;22;102206;-75
2022/01/18 05:48:25;;;;;;;6.38;1.55;;;;;;;;;;6212253;22;102495;-75
2022/01/18 05:50:54;;;;;;;7.70;1.52;;;;;;;;;;6187057;22;101053;-75
2022/01/18 05:53:21;;;;;;;6.80;1.42;;;;;;;;;;6214861;22;99714;-75
2022/01/18 05:55:48;;;;;;;8.00;1.80;;;;;;;;;;6213932;22;101198;-75
2022/01/18 05:58:14;;;;;;;7.43;1.80;;;;;;;;;;6213963;22;100731;-75
2022/01/18 06:00:41;;;;;;;10.52;1.95;;;;;;;;;;6160768;22;100195;-75
2022/01/18 06:03:14;;;;;;;6.00;2.00;;;;;;;;;;6213064;22;100884;-75
2022/01/18 06:08:27;;;;;;;6.18;2.00;;;;;;;;;;6234126;22;100570;-76
2022/01/18 06:10:54;;;;;;;8.85;1.90;;;;;;;;;;6214251;22;99946;-74
2022/01/18 06:13:21;;;;;;;6.05;1.63;;;;;;;;;;6214327;22;99722;-75
2022/01/18 06:15:48;;;;;;;6.85;1.77;;;;;;;;;;6212972;22;100374;-75
2022/01/18 06:18:16;;;;;;;6.43;1.67;;;;;;;;;;6237867;22;100854;-75
2022/01/18 06:20:43;;;;;;;7.82;1.85;;;;;;;;;;6214452;22;99906;-74
2022/01/18 06:23:10;;;;;;;6.05;1.52;;;;;;;;;;6213948;22;99947;-74
2022/01/18 06:25:38;;;;;;;11.77;2.10;;;;;;;;;;6212909;22;100218;-75
2022/01/18 06:28:05;;;;;;;8.15;1.88;;;;;;;;;;6214796;22;100555;-75
2022/01/18 06:30:32;;;;;;;7.45;1.50;;;;;;;;;;6215446;22;100031;-75
2022/01/18 06:32:59;;;;;;;11.13;2.22;;;;;;;;;;6213927;22;99945;-75
2022/01/18 06:35:26;;;;;;;8.98;1.90;;;;;;;;;;6212297;22;102193;-75
2022/01/18 06:37:53;;;;;;;8.45;1.70;;;;;;;;;;6212339;22;100619;-74
2022/01/18 06:40:21;;;;;;;7.63;1.80;;;;;;;;;;6213307;22;100171;-74
2022/01/18 06:42:48;;;;;;;11.05;1.98;;;;;;;;;;6215521;22;99879;-74
2022/01/18 06:45:15;;;;;;;10.48;2.03;;;;;;;;;;6239085;22;100175;-75
2022/01/18 06:47:42;;;;;;;5.78;1.40;;;;;;;;;;6214994;22;100464;-75
2022/01/18 06:50:11;;;;;;;5.70;1.38;;;;;;;;;;6215148;22;99879;-76
2022/01/18 06:52:40;;;;;;;11.98;2.60;;;;;;;;;;6214149;22;99895;-76
2022/01/18 06:55:08;;;;;;;10.88;2.50;;;;;;;;;;6214830;22;100729;-75
2022/01/18 06:57:34;;;;;;;6.15;1.77;;;;;;;;;;6213244;22;101749;-75
2022/01/18 07:00:04;;;;;;;5.28;1.70;;;;;;;;;;6215543;22;99825;-76
2022/01/18 07:02:31;;;;;;;6.90;1.83;;;;;;;;;;6238654;22;99865;-75
2022/01/18 07:05:00;;;;;;;9.60;2.17;;;;;;;;;;6214704;22;100093;-75
2022/01/18 07:07:27;;;;;;;8.25;2.15;;;;;;;;;;6213590;22;100484;-75
2022/01/18 07:09:54;;;;;;;12.15;1.88;;;;;;;;;;6188560;22;100088;-75
2022/01/18 07:12:22;;;;;;;11.02;2.13;;;;;;;;;;6213881;22;99917;-76
2022/01/18 07:14:49;;;;;;;10.20;1.92;;;;;;;;;;6213333;22;100237;-75
2022/01/18 07:17:16;;;;;;;7.47;1.63;;;;;;;;;;6214754;22;101034;-75
2022/01/18 07:19:42;;;;;;;7.97;1.88;;;;;;;;;;6213718;22;100106;-75
2022/01/18 07:22:09;;;;;;;12.32;2.30;;;;;;;;;;6162775;22;99994;-76
2022/01/18 07:24:44;;;;;;;11.25;3.03;;;;;;;;;;6214682;22;100213;-74
2022/01/18 07:27:13;;;;;;;13.48;2.28;;;;;;;;;;6213159;22;101022;-75
2022/01/18 07:29:41;;;;;;;7.90;2.45;;;;;;;;;;6213623;22;99931;-74
2022/01/18 07:32:09;;;;;;;13.73;2.55;;;;;;;;;;6214580;22;99927;-74
2022/01/18 07:34:40;;;;;;;13.75;2.60;;;;;;;;;;6214399;22;100125;-74
2022/01/18 07:37:09;;;;;;;6.38;1.85;;;;;;;;;;6237584;22;100539;-74
2022/01/18 07:39:35;;;;;;;7.32;1.63;;;;;;;;;;6188247;22;100061;-75
2022/01/18 07:42:03;;;;;;;9.73;2.25;;;;;;;;;;6213606;22;99973;-74
2022/01/18 07:44:30;;;;;;;7.68;1.90;;;;;;;;;;6211769;22;100420;-74
2022/01/18 07:46:57;;;;;;;8.95;1.80;;;;;;;;;;6213031;22;100463;-75
2022/01/18 07:49:24;;;;;;;9.88;2.08;;;;;;;;;;6215202;22;100029;-75
2022/01/18 07:51:50;;;;;;;9.35;2.15;;;;;;;;;;6213103;22;99864;-75
2022/01/18 07:54:17;;;;;;;12.65;2.00;;;;;;;;;;6238362;22;100172;-75
2022/01/18 07:56:44;;;;;;;12.07;2.28;;;;;;;;;;6187776;22;100418;-75
2022/01/18 07:59:12;;;;;;;10.10;2.55;;;;;;;;;;6213382;22;100020;-76
2022/01/18 08:01:39;;;;;;;11.23;2.30;;;;;;;;;;6213767;22;100011;-75
2022/01/18 08:04:06;;;;;;;5.68;1.98;;;;;;;;;;6212321;22;100048;-74
2022/01/18 08:06:33;;;;;;;9.85;2.55;;;;;;;;;;6214398;22;100511;-74
2022/01/18 08:09:00;;;;;;;10.68;2.28;;;;;;;;;;6213008;22;99930;-75
2022/01/18 08:11:26;;;;;;;8.05;2.63;;;;;;;;;;6214220;22;100192;-76
2022/01/18 08:13:53;;;;;;;18.83;3.80;;;;;;;;;;6238281;22;100046;-75
2022/01/18 08:19:08;;;;;;;11.68;3.42;;;;;;;;;;6204277;22;99939;-76
2022/01/18 08:21:35;;;;;;;16.67;3.90;;;;;;;;;;6213643;22;99895;-76
2022/01/18 08:24:02;;;;;;;11.82;3.33;;;;;;;;;;6214200;22;100350;-76
2022/01/18 08:26:28;;;;;;;13.05;3.70;;;;;;;;;;6212425;22;100500;-74
2022/01/18 08:28:55;;;;;;;13.57;3.08;;;;;;;;;;6213285;22;100029;-75
2022/01/18 08:31:22;;;;;;;10.90;3.15;;;;;;;;;;6212646;22;100249;-75
2022/01/18 08:33:49;;;;;;;12.30;2.80;;;;;;;;;;6186039;22;100312;-75
2022/01/18 08:36:16;;;;;;;10.55;2.78;;;;;;;;;;6237278;22;100554;-74
2022/01/18 08:38:43;;;;;;;18.33;3.15;;;;;;;;;;6214338;22;100020;-75
2022/01/18 08:41:10;;;;;;;15.25;3.60;;;;;;;;;;6214331;22;99927;-75
2022/01/18 08:43:37;;;;;;;12.70;3.30;;;;;;;;;;6212980;22;100826;-75
2022/01/18 08:46:05;;;;;;;16.50;3.63;;;;;;;;;;6213925;22;100568;-76
2022/01/18 08:48:32;;;;;;;10.73;3.20;;;;;;;;;;6213779;22;100585;-74
2022/01/18 08:50:59;;;;;;;9.40;3.50;;;;;;;;;;6211914;22;100042;-76
2022/01/18 08:53:27;;;;;;;16.08;4.53;;;;;;;;;;6211735;22;100080;-75
2022/01/18 08:55:54;;;;;;;12.25;3.17;;;;;;;;;;6237269;22;103402;-75
2022/01/18 08:58:21;;;;;;;16.23;3.95;;;;;;;;;;6237830;22;100189;-75
2022/01/18 09:00:49;;;;;;;11.00;3.17;;;;;;;;;;6186917;22;100931;-75
2022/01/18 09:03:16;;;;;;;12.70;3.50;;;;;;;;;;6212286;22;100112;-75
2022/01/18 09:05:44;;;;;;;15.88;3.92;;;;;;;;;;6185751;22;100433;-75
2022/01/18 09:08:12;;;;;;;13.93;3.40;;;;;;;;;;6213761;22;99960;-73
2022/01/18 09:10:40;;;;;;;9.32;3.28;;;;;;;;;;6214053;22;99847;-76
2022/01/18 09:13:18;;;;;;;14.70;3.72;;;;;;;;;;6186309;22;100400;-73
2022/01/18 09:15:45;;;;;;;10.65;2.75;;;;;;;;;;6212692;22;101070;-74
2022/01/18 09:18:15;;;;;;;10.60;2.88;;;;;;;;;;6211330;22;100528;-75
2022/01/18 09:20:41;;;;;;;6.60;3.20;;;;;;;;;;6212756;22;99875;-75
2022/01/18 09:23:08;;;;;;;14.32;3.85;;;;;;;;;;6212351;22;100066;-74
2022/01/18 09:25:36;;;;;;;9.30;2.72;;;;;;;;;;6212489;22;100550;-75
2022/01/18 09:28:03;;;;;;;11.45;2.72;;;;;;;;;;6212709;22;100348;-76
2022/01/18 09:30:31;;;;;;;12.20;4.25;;;;;;;;;;6185863;22;100488;-74
2022/01/18 09:32:58;;;;;;;15.85;4.13;;;;;;;;;;6211197;22;100118;-75
2022/01/18 09:35:25;;;;;;;12.25;4.03;;;;;;;;;;6210756;22;100746;-75
2022/01/18 09:37:56;;;;;;;13.98;4.03;;;;;;;;;;6186685;22;100322;-75
2022/01/18 09:40:23;;;;;;;14.70;4.65;;;;;;;;;;6211297;22;99916;-74
2022/01/18 09:42:54;;;;;;;14.20;3.80;;;;;;;;;;6209590;22;100239;-74
2022/01/18 09:45:21;;;;;;;14.75;3.65;;;;;;;;;;6208969;22;101036;-75
2022/01/18 09:47:50;;;;;;;14.77;4.00;;;;;;;;;;6210789;22;99944;-75
2022/01/18 09:50:22;;;;;;;13.40;4.10;;;;;;;;;;6212345;22;100319;-76
2022/01/18 09:52:53;;;;;;;12.88;4.53;;;;;;;;;;6212396;22;100173;-75
2022/01/18 09:55:23;;;;;;;15.65;4.20;;;;;;;;;;6210242;22;101762;-76
2022/01/18 09:57:50;;;;;;;15.25;4.93;;;;;;;;;;6212038;22;100041;-75
2022/01/18 10:00:18;;;;;;;17.20;4.65;;;;;;;;;;6236764;22;100050;-75
2022/01/18 10:02:45;;;;;;;12.60;3.78;;;;;;;;;;6209487;22;102997;-76
2022/01/18 10:05:32;;;;;;;16.90;4.90;;;;;;;;;;6212572;22;100601;-75
2022/01/18 10:07:59;;;;;;;11.88;4.25;;;;;;;;;;6212456;22;99913;-76
2022/01/18 10:10:47;;;;;;;10.02;3.55;;;;;;;;;;6211202;22;99910;-75
2022/01/18 10:13:19;;;;;;;14.93;4.57;;;;;;;;;;6211318;22;100171;-75
2022/01/18 10:16:02;;;;;;;18.45;4.80;;;;;;;;;;6211299;22;100557;-75
2022/01/18 10:18:36;;;;;;;21.65;5.47;;;;;;;;;;6212625;22;99919;-75
2022/01/18 10:21:05;;;;;;;11.82;3.40;;;;;;;;;;6184103;22;100385;-75
2022/01/18 10:23:33;;;;;;;13.25;4.22;;;;;;;;;;6212115;22;100675;-75
2022/01/18 10:26:14;;;;;;;13.35;3.20;;;;;;;;;;6185582;22;100558;-76
2022/01/18 10:28:41;;;;;;;13.70;3.20;;;;;;;;;;6210697;22;100775;-75
2022/01/18 10:31:34;;;;;;;7.95;4.07;;;;;;;;;;6210844;22;99985;-75
2022/01/18 10:37:00;;;;;;;;;;;;;;;;;;6189118;22;100018;-75
2022/01/18 10:39:34;;;;;;;11.52;3.70;;;;;;;;;;6212514;22;99972;-75
2022/01/18 10:42:36;;;;;;;11.23;3.92;;;;;;;;;;6212736;22;100015;-74
2022/01/18 10:45:04;;;;;;;12.30;3.70;;;;;;;;;;6234661;22;100315;-75
2022/01/18 10:47:33;;;;;;;15.00;4.20;;;;;;;;;;6212533;22;100479;-75
2022/01/18 10:50:11;;;;;;;12.80;3.85;;;;;;;;;;6184629;22;99866;-75
2022/01/18 10:52:38;;;;;;;15.80;4.00;;;;;;;;;;6211527;22;100318;-75
2022/01/18 10:55:05;;;;;;;13.75;4.07;;;;;;;;;;6235625;22;100067;-75
2022/01/18 10:57:36;;;;;;;15.52;3.97;;;;;;;;;;6097523;22;100578;-75
2022/01/18 11:00:12;;;;;;;12.27;4.22;;;;;;;;;;6119536;23;100031;-75
2022/01/18 11:02:40;;;;;;;17.88;4.43;;;;;;;;;;6119828;23;99837;-75
2022/01/18 11:05:20;;;;;;;12.07;4.00;;;;;;;;;;6095377;23;103012;-75
2022/01/18 11:07:48;;;;;;;14.73;4.55;;;;;;;;;;6120542;23;100456;-75
2022/01/18 11:10:17;;;;;;;19.98;5.50;;;;;;;;;;6122570;23;100004;-75
2022/01/18 11:12:53;;;;;;;14.32;4.97;;;;;;;;;;6122147;22;100257;-75
2022/01/18 11:15:22;;;;;;;17.80;4.95;;;;;;;;;;6162379;22;100128;-76
2022/01/18 11:17:55;;;;;;;14.63;4.80;;;;;;;;;;6182638;22;100525;-76
2022/01/18 11:20:22;;;;;;;14.88;4.82;;;;;;;;;;6181667;22;100121;-76
2022/01/18 11:22:50;;;;;;;11.55;4.18;;;;;;;;;;6132114;22;100084;-76
2022/01/18 11:25:17;;;;;;;15.45;4.43;;;;;;;;;;6180209;22;100166;-76
2022/01/18 11:27:48;;;;;;;17.10;5.35;;;;;;;;;;6149154;22;100626;-76
2022/01/18 11:30:20;;;;;;;19.42;6.30;;;;;;;;;;6127912;22;100043;-76
2022/01/18 11:32:47;;;;;;;13.15;5.32;;;;;;;;;;6182720;22;100196;-77
2022/01/18 11:35:20;;;;;;;21.27;6.07;;;;;;;;;;6155136;22;100801;-76
2022/01/18 11:38:25;;;;;;;16.60;5.30;;;;;;;;;;6155138;22;100796;-76
2022/01/18 11:40:54;;;;;;;15.55;5.15;;;;;;;;;;6153971;22;100303;-76
2022/01/18 11:43:47;;;;;;;17.20;6.50;;;;;;;;;;6132015;22;100018;-76
2022/01/18 11:46:26;;;;;;;13.43;5.47;;;;;;;;;;6154508;22;100123;-75
2022/01/18 11:49:09;;;;;;;16.95;6.75;;;;;;;;;;6182029;22;100604;-75
2022/01/18 11:51:48;;;;;;;14.25;5.05;;;;;;;;;;6182984;22;99929;-75
2022/01/18 11:54:40;;;;;;;8.93;4.38;;;;;;;;;;6182600;22;99830;-75
2022/01/18 11:57:22;;;;;;;9.60;3.58;;;;;;;;;;6155573;22;100193;-74
2022/01/18 11:59:53;;;;;;;13.68;4.28;;;;;;;;;;6179927;22;100679;-75
2022/01/18 12:02:41;;;;;;;13.68;3.90;;;;;;;;;;6182967;22;99940;-74
2022/01/18 12:05:19;;;;;;;13.48;3.30;;;;;;;;;;6183189;22;99965;-74
2022/01/18 12:08:01;;;;;;;13.02;3.85;;;;;;;;;;6155128;22;100521;-74
2022/01/18 12:10:34;;;;;;;11.05;4.10;;;;;;;;;;6129703;22;100499;-75
2022/01/18 12:13:02;;;;;;;12.57;3.97;;;;;;;;;;6156575;22;100105;-72
2022/01/18 12:15:32;;;;;;;12.73;4.85;;;;;;;;;;6182200;22;99937;-74
2022/01/18 12:18:04;;;;;;;17.00;4.60;;;;;;;;;;6180724;22;101358;-74
2022/01/18 12:20:37;;;;;;;13.15;4.70;;;;;;;;;;6131117;22;100778;-75
2022/01/18 12:23:09;;;;;;;15.52;5.40;;;;;;;;;;6156480;22;100029;-74
2022/01/18 12:25:37;;;;;;;16.88;6.30;;;;;;;;;;6150740;22;99940;-74
2022/01/18 12:34:29;;;;;;;12.45;4.80;;;;;;;;;;6183284;22;100416;-74
2022/01/18 12:37:05;;;;;;;15.15;4.75;;;;;;;;;;6183449;22;100234;-74
2022/01/18 12:39:50;;;;;;;12.60;5.15;;;;;;;;;;6182388;22;100715;-74
2022/01/18 12:45:19;;;;;;;13.68;4.55;;;;;;;;;;6181024;22;100590;-74
2022/01/18 12:47:55;;;;;;;12.40;4.18;;;;;;;;;;6132524;22;100840;-74
2022/01/18 12:50:33;;;;;;;14.18;5.93;;;;;;;;;;6180779;22;100898;-76
2022/01/18 12:53:13;;;;;;;19.88;5.47;;;;;;;;;;6155468;22;100546;-75
2022/01/18 12:55:46;;;;;;;13.05;4.45;;;;;;;;;;6126661;22;99967;-74
2022/01/18 12:58:20;;;;;;;10.83;4.10;;;;;;;;;;6181749;22;99972;-76
2022/01/18 13:01:17;;;;;;;12.63;4.00;;;;;;;;;;6180837;22;101545;-74
2022/01/18 13:03:46;;;;;;;15.30;3.70;;;;;;;;;;6174742;22;100673;-75
2022/01/18 13:06:16;;;;;;;11.10;3.72;;;;;;;;;;6180814;22;100188;-75
2022/01/18 13:08:47;;;;;;;13.95;3.97;;;;;;;;;;6181462;22;100912;-74
2022/01/18 13:11:18;;;;;;;14.95;4.57;;;;;;;;;;6151623;22;100084;-74
2022/01/18 13:13:54;;;;;;;14.50;3.60;;;;;;;;;;6130868;22;102178;-75
2022/01/18 13:25:02;;;;;;;7.82;3.38;;;;;;;;;;6159163;22;102421;-73
2022/01/18 13:27:38;;;;;;;15.35;3.63;;;;;;;;;;6112620;22;100039;-75
2022/01/18 13:30:26;;;;;;;8.90;3.60;;;;;;;;;;6158040;22;100370;-75
2022/01/18 13:32:53;;;;;;;15.82;4.60;;;;;;;;;;6155988;22;100400;-75
2022/01/18 13:35:22;;;;;;;10.60;3.30;;;;;;;;;;6155768;22;100483;-75
2022/01/18 13:37:49;;;;;;;11.27;3.75;;;;;;;;;;6156342;22;99895;-74
2022/01/18 13:40:17;;;;;;;12.75;4.25;;;;;;;;;;6180717;22;99786;-75
2022/01/18 13:42:53;;;;;;;11.50;3.67;;;;;;;;;;6154684;22;100263;-74
2022/01/18 13:45:24;;;;;;;10.98;3.80;;;;;;;;;;6180397;22;100617;-74
2022/01/18 13:47:58;;;;;;;11.38;3.80;;;;;;;;;;6182583;22;99951;-74
2022/01/18 13:50:40;;;;;;;12.85;4.13;;;;;;;;;;6182335;22;100028;-75
2022/01/18 13:53:10;;;;;;;10.40;3.88;;;;;;;;;;6181920;22;100887;-74
2022/01/18 13:55:38;;;;;;;14.20;4.32;;;;;;;;;;6182385;22;100508;-74
2022/01/18 13:58:05;;;;;;;12.25;4.18;;;;;;;;;;6183037;22;100094;-74
2022/01/18 14:00:32;;;;;;;13.38;4.18;;;;;;;;;;6179344;22;100000;-74
2022/01/18 14:02:59;;;;;;;11.38;4.55;;;;;;;;;;6154973;22;100832;-74
2022/01/18 14:05:26;;;;;;;9.60;3.72;;;;;;;;;;6154960;22;101850;-75
2022/01/18 14:08:05;;;;;;;16.83;4.57;;;;;;;;;;6182904;22;99830;-76
2022/01/18 14:10:32;;;;;;;10.48;4.15;;;;;;;;;;6180864;22;100131;-74
2022/01/18 14:12:59;;;;;;;13.68;5.10;;;;;;;;;;6182311;22;100180;-74
2022/01/18 14:15:39;;;;;;;9.07;3.58;;;;;;;;;;6151428;22;100472;-74
2022/01/18 14:18:07;;;;;;;12.32;3.92;;;;;;;;;;6179094;22;100035;-73
2022/01/18 14:20:39;;;;;;;12.48;5.03;;;;;;;;;;6157516;22;99930;-74
2022/01/18 14:23:16;;;;;;;12.60;4.07;;;;;;;;;;6181576;22;100606;-74
2022/01/18 14:25:43;;;;;;;16.65;5.10;;;;;;;;;;6155815;22;100475;-75
2022/01/18 14:28:11;;;;;;;11.45;4.30;;;;;;;;;;6182151;22;100302;-74
2022/01/18 14:30:42;;;;;;;11.52;3.72;;;;;;;;;;6182428;22;99866;-74
2022/01/18 14:33:12;;;;;;;13.20;4.32;;;;;;;;;;6180191;22;103039;-74
2022/01/18 14:35:44;;;;;;;9.38;3.70;;;;;;;;;;6180299;22;100777;-76
2022/01/18 14:38:12;;;;;;;15.55;4.95;;;;;;;;;;6155614;22;100003;-75
2022/01/18 14:40:44;;;;;;;12.50;4.70;;;;;;;;;;6131138;22;99955;-75
2022/01/18 14:43:15;;;;;;;11.02;4.43;;;;;;;;;;6181199;22;100282;-75
2022/01/18 14:46:00;;;;;;;15.93;5.38;;;;;;;;;;6181911;22;100481;-75
2022/01/18 14:48:35;;;;;;;13.30;4.90;;;;;;;;;;6182489;22;100096;-75
2022/01/18 14:51:02;;;;;;;13.75;4.53;;;;;;;;;;6157708;22;100040;-75
2022/01/18 14:53:29;;;;;;;14.30;5.22;;;;;;;;;;6156647;22;100352;-75
2022/01/18 14:55:56;;;;;;;18.08;4.85;;;;;;;;;;6181879;22;100544;-76
2022/01/18 14:58:23;;;;;;;25.08;6.32;;;;;;;;;;6183506;22;99906;-75
2022/01/18 15:00:52;;;;;;;20.42;4.93;;;;;;;;;;6181806;22;100003;-75
2022/01/18 15:03:19;;;;;;;22.38;5.63;;;;;;;;;;6131191;22;100527;-74
2022/01/18 15:05:46;;;;;;;16.35;5.35;;;;;;;;;;6181067;22;100995;-75
2022/01/18 15:08:13;;;;;;;18.55;5.78;;;;;;;;;;6156966;22;99918;-75
2022/01/18 15:10:40;;;;;;;16.38;5.70;;;;;;;;;;6183066;22;100012;-74
2022/01/18 15:13:07;;;;;;;15.40;5.63;;;;;;;;;;6155521;22;100377;-74
2022/01/18 15:15:35;;;;;;;11.18;4.70;;;;;;;;;;6155457;22;100578;-74
2022/01/18 15:18:02;;;;;;;17.02;5.72;;;;;;;;;;6182224;22;99994;-74
2022/01/18 15:20:29;;;;;;;17.02;6.00;;;;;;;;;;6181664;22;99917;-75
2022/01/18 15:22:56;;;;;;;19.90;5.47;;;;;;;;;;6156509;22;100216;-74
2022/01/18 15:25:44;;;;;;;13.57;5.35;;;;;;;;;;6182946;22;100468;-74
2022/01/18 15:28:10;;;;;;;11.95;4.72;;;;;;;;;;6131512;22;99917;-74
2022/01/18 15:30:38;;;;;;;15.20;6.05;;;;;;;;;;6131460;22;100490;-74
2022/01/18 15:33:08;;;;;;;15.65;4.72;;;;;;;;;;6154937;22;102445;-74
2022/01/18 15:35:36;;;;;;;17.48;6.63;;;;;;;;;;6182776;22;100485;-76
2022/01/18 15:38:02;;;;;;;20.13;7.47;;;;;;;;;;6181782;22;100281;-74
2022/01/18 15:40:29;;;;;;;17.40;6.85;;;;;;;;;;6156658;22;99945;-75
2022/01/18 15:42:56;;;;;;;18.17;6.78;;;;;;;;;;6181993;22;100879;-74
2022/01/18 15:45:23;;;;;;;23.80;8.68;;;;;;;;;;6181230;22;100634;-75
2022/01/18 15:47:50;;;;;;;21.00;7.10;;;;;;;;;;6181534;22;99916;-74
2022/01/18 15:50:17;;;;;;;22.75;8.40;;;;;;;;;;6156939;22;100284;-75
2022/01/18 15:52:44;;;;;;;26.10;9.80;;;;;;;;;;6181074;22;100619;-74
2022/01/18 15:55:11;;;;;;;18.15;7.60;;;;;;;;;;6180209;22;101208;-77
2022/01/18 15:57:38;;;;;;;23.13;9.50;;;;;;;;;;6181794;22;100486;-75
2022/01/18 16:00:06;;;;;;;17.00;6.68;;;;;;;;;;6184354;22;99810;-75
2022/01/18 16:02:33;;;;;;;25.52;7.72;;;;;;;;;;6182207;22;100135;-75
2022/01/18 16:05:00;;;;;;;24.33;8.27;;;;;;;;;;6155921;22;100824;-74
2022/01/18 16:07:27;;;;;;;28.60;8.77;;;;;;;;;;6156398;22;99970;-74
2022/01/18 16:09:54;;;;;;;29.75;10.05;;;;;;;;;;6182597;22;100320;-74
2022/01/18 16:12:21;;;;;;;37.15;11.63;;;;;;;;;;6181939;22;100457;-74
2022/01/18 16:14:48;;;;;;;40.63;12.70;;;;;;;;;;6180706;22;100461;-74